Time;durP1;ratioP1;P1;durP2;ratioP2;P2;SDS_P1;SDS_P2;PMS_P1;PMS_P2;Temp;Humidity;BMP_temperature;BMP_pressure;BME280_temperature;BME280_humidity;BME280_pressure;Samples;Min_cycle;Max_cycle;Signal;HPM_P1;HPM_P2
2021/03/15 00:00:41;;;;;;;8.17;4.20;;;;;;;0.78;84.19;95309.63;5094669;28;20199;-77
2021/03/15 00:03:07;;;;;;;8.53;4.07;;;;;;;0.77;83.66;95308.81;5112805;28;20255;-79
2021/03/15 00:05:32;;;;;;;8.33;3.50;;;;;;;0.78;83.94;95310.44;5111306;28;20279;-79
2021/03/15 00:07:57;;;;;;;8.43;3.87;;;;;;;0.75;84.26;95308.09;5094779;28;20183;-79
2021/03/15 00:10:23;;;;;;;7.90;4.10;;;;;;;0.69;84.50;95317.88;5110875;28;20197;-80
2021/03/15 00:12:49;;;;;;;8.77;4.40;;;;;;;0.77;84.77;95313.09;5094258;28;20191;-79
2021/03/15 00:15:17;;;;;;;8.23;4.37;;;;;;;0.77;84.37;95306.25;5077530;28;20375;-79
2021/03/15 00:17:43;;;;;;;5.50;3.73;;;;;;;0.69;84.59;95307.66;5094555;28;20301;-78
2021/03/15 00:20:11;;;;;;;11.33;4.23;;;;;;;0.67;84.72;95304.38;5094565;28;20179;-79
2021/03/15 00:22:37;;;;;;;10.10;4.67;;;;;;;0.66;84.56;95302.72;5094586;28;20188;-77
2021/03/15 00:25:04;;;;;;;8.13;4.00;;;;;;;0.67;84.48;95300.06;5093862;28;20200;-79
2021/03/15 00:27:29;;;;;;;8.50;3.70;;;;;;;0.62;84.92;95297.00;5077463;28;20464;-79
2021/03/15 00:29:54;;;;;;;7.83;4.20;;;;;;;0.55;85.19;95313.59;5112921;28;20213;-79
2021/03/15 00:32:20;;;;;;;5.67;4.37;;;;;;;0.59;85.18;95301.47;5094338;28;20572;-80
2021/03/15 00:34:45;;;;;;;9.27;4.60;;;;;;;0.61;85.19;95299.63;5094215;28;20178;-79
2021/03/15 00:37:11;;;;;;;7.03;4.33;;;;;;;0.63;85.01;95303.75;5094440;28;20631;-79
2021/03/15 00:39:36;;;;;;;9.17;4.80;;;;;;;0.66;84.87;95298.44;5094299;28;20324;-79
2021/03/15 00:42:02;;;;;;;9.83;4.80;;;;;;;0.60;85.07;95303.09;5112091;28;20192;-80
2021/03/15 00:44:27;;;;;;;8.57;4.07;;;;;;;0.56;84.89;95302.47;5093920;28;20218;-79
2021/03/15 00:46:53;;;;;;;5.13;4.03;;;;;;;0.60;85.05;95296.25;5112353;28;20207;-79
2021/03/15 00:49:18;;;;;;;8.80;4.97;;;;;;;0.65;85.00;95291.69;5112379;28;20225;-79
2021/03/15 00:51:44;;;;;;;10.73;4.77;;;;;;;0.57;84.91;95289.59;5112247;28;20563;-79
2021/03/15 00:54:09;;;;;;;9.63;4.73;;;;;;;0.54;85.04;95294.09;5094336;28;20203;-79
2021/03/15 00:56:34;;;;;;;7.67;4.10;;;;;;;0.60;85.18;95293.69;5093856;28;20662;-79
2021/03/15 00:59:00;;;;;;;14.10;5.03;;;;;;;0.58;84.83;95287.84;5094253;28;20280;-79
2021/03/15 01:01:25;;;;;;;12.07;5.00;;;;;;;0.48;85.25;95290.16;5093898;28;20299;-79
2021/03/15 01:03:50;;;;;;;10.73;5.20;;;;;;;0.46;85.08;95302.22;5094129;28;20179;-79
2021/03/15 01:06:16;;;;;;;8.63;5.03;;;;;;;0.47;85.63;95300.47;5093574;28;20206;-79
2021/03/15 01:08:42;;;;;;;10.47;4.57;;;;;;;0.49;85.71;95302.00;5093900;28;20654;-79
2021/03/15 01:11:07;;;;;;;7.17;4.30;;;;;;;0.52;85.59;95304.38;5112166;28;20196;-79
2021/03/15 01:13:33;;;;;;;10.93;4.90;;;;;;;0.66;85.65;95302.72;5094097;28;20704;-79
2021/03/15 01:15:58;;;;;;;10.23;4.57;;;;;;;0.74;85.15;95296.22;5111784;28;20211;-79
2021/03/15 01:18:24;;;;;;;6.40;4.50;;;;;;;0.74;85.29;95290.31;5077032;28;20252;-79
2021/03/15 01:20:49;;;;;;;11.30;5.13;;;;;;;0.83;85.14;95290.56;5076725;28;20286;-79
2021/03/15 01:23:14;;;;;;;9.27;4.63;;;;;;;0.85;85.17;95290.47;5096559;28;20172;-79
2021/03/15 01:25:42;;;;;;;11.20;4.30;;;;;;;0.85;84.96;95293.00;5097764;28;20215;-79
2021/03/15 01:28:12;;;;;;;10.60;4.93;;;;;;;0.88;84.98;95289.44;5098017;28;20178;-79
2021/03/15 01:30:39;;;;;;;9.97;4.83;;;;;;;0.95;84.59;95283.03;5080704;28;20195;-79
2021/03/15 01:33:05;;;;;;;11.83;4.67;;;;;;;0.97;84.80;95283.75;5097704;28;20176;-79
2021/03/15 01:35:30;;;;;;;14.03;4.80;;;;;;;0.95;84.63;95283.03;5097295;28;20256;-79
2021/03/15 01:37:56;;;;;;;10.67;4.13;;;;;;;0.99;84.58;95275.09;5097863;28;20586;-79
2021/03/15 01:40:22;;;;;;;11.60;4.57;;;;;;;1.02;84.48;95272.31;5080532;28;20229;-79
2021/03/15 01:42:47;;;;;;;12.03;4.47;;;;;;;1.05;84.51;95272.13;5097099;28;20262;-79
2021/03/15 01:45:13;;;;;;;10.00;5.27;;;;;;;1.08;84.33;95260.91;5115237;28;20295;-79
2021/03/15 01:47:39;;;;;;;10.23;4.77;;;;;;;1.08;84.42;95254.06;5096988;28;20283;-79
2021/03/15 01:50:06;;;;;;;12.67;5.20;;;;;;;1.06;84.19;95244.81;5097296;28;20200;-79
2021/03/15 01:52:33;;;;;;;13.60;5.27;;;;;;;1.07;84.40;95242.19;5080073;28;20207;-79
2021/03/15 01:54:58;;;;;;;18.43;4.17;;;;;;;1.05;84.16;95241.44;5097085;28;20244;-79
2021/03/15 01:57:24;;;;;;;10.03;4.30;;;;;;;1.20;83.75;95237.09;5096981;28;20647;-79
2021/03/15 01:59:49;;;;;;;14.10;4.20;;;;;;;1.12;83.59;95226.53;5097015;28;20876;-79
2021/03/15 02:02:15;;;;;;;11.47;3.67;;;;;;;1.10;83.43;95230.94;5096678;28;20274;-79
2021/03/15 02:04:40;;;;;;;12.97;4.57;;;;;;;1.17;83.29;95221.94;5113773;28;20678;-80
2021/03/15 02:07:06;;;;;;;9.97;3.70;;;;;;;1.05;83.38;95225.28;5115020;28;20196;-79
2021/03/15 02:09:31;;;;;;;11.27;3.80;;;;;;;0.99;83.79;95215.47;5079723;28;20563;-79
2021/03/15 02:12:16;;;;;;;8.80;4.30;;;;;;;1.03;83.69;95207.47;5079763;28;20207;-79
2021/03/15 02:15:09;;;;;;;11.40;4.80;;;;;;;0.97;83.50;95204.47;5114756;28;20176;-79
2021/03/15 02:18:03;;;;;;;8.23;3.80;;;;;;;0.96;83.50;95206.22;5114981;28;20176;-79
2021/03/15 02:20:50;;;;;;;13.83;3.60;;;;;;;0.85;83.29;95201.81;5096681;28;20278;-79
2021/03/15 02:23:21;;;;;;;9.50;3.93;;;;;;;0.85;83.16;95199.25;5115036;28;20183;-79
2021/03/15 02:25:49;;;;;;;9.47;4.07;;;;;;;0.83;83.22;95190.88;5114570;28;20206;-79
2021/03/15 02:28:53;;;;;;;11.87;4.13;;;;;;;0.85;83.04;95181.34;5114573;28;20176;-79
2021/03/15 02:31:35;;;;;;;11.17;3.80;;;;;;;0.81;83.03;95172.25;5113316;28;20586;-79
2021/03/15 02:34:19;;;;;;;10.03;3.93;;;;;;;0.76;83.30;95171.72;5095303;28;20651;-78
2021/03/15 02:36:46;;;;;;;13.33;4.07;;;;;;;0.84;82.64;95172.03;5114538;28;20627;-79
2021/03/15 02:39:16;;;;;;;11.73;3.97;;;;;;;0.90;82.51;95167.47;5096054;28;20180;-79
2021/03/15 02:41:43;;;;;;;9.50;3.97;;;;;;;0.87;82.52;95160.78;5095726;28;20196;-79
2021/03/15 02:44:10;;;;;;;7.27;3.50;;;;;;;0.78;82.70;95158.81;5095959;28;20184;-79
2021/03/15 02:46:36;;;;;;;5.07;3.43;;;;;;;0.85;82.29;95155.78;5095801;28;20239;-80
2021/03/15 02:49:05;;;;;;;8.83;3.57;;;;;;;0.87;82.67;95147.19;5096126;28;20175;-79
2021/03/15 02:51:33;;;;;;;8.97;3.67;;;;;;;0.84;82.57;95143.94;5114221;28;20271;-79
2021/03/15 02:53:59;;;;;;;9.73;3.63;;;;;;;0.88;82.16;95138.59;5095650;28;20171;-79
2021/03/15 02:56:26;;;;;;;10.73;4.10;;;;;;;0.84;82.25;95133.69;5095527;28;20354;-78
2021/03/15 02:58:54;;;;;;;10.17;3.90;;;;;;;0.76;82.59;95130.81;5095798;28;20577;-79
2021/03/15 03:01:19;;;;;;;8.63;3.60;;;;;;;0.74;82.53;95125.00;5078911;28;20192;-79
2021/03/15 03:03:47;;;;;;;9.20;3.67;;;;;;;0.73;82.56;95125.91;5095835;28;20179;-79
2021/03/15 03:06:14;;;;;;;6.87;4.00;;;;;;;0.85;82.33;95121.75;5095192;28;20235;-79
2021/03/15 03:08:39;;;;;;;6.97;3.53;;;;;;;0.80;82.37;95116.13;5095506;28;20236;-79
2021/03/15 03:11:05;;;;;;;11.63;3.40;;;;;;;0.85;82.38;95114.88;5078424;28;20196;-79
2021/03/15 03:13:32;;;;;;;12.53;3.90;;;;;;;0.89;82.60;95109.59;5095721;28;20187;-79
2021/03/15 03:15:58;;;;;;;9.43;3.13;;;;;;;0.87;82.51;95102.00;5078724;28;20628;-79
2021/03/15 03:18:24;;;;;;;11.07;3.43;;;;;;;0.92;82.42;95099.16;5095827;28;20193;-79
2021/03/15 03:20:53;;;;;;;9.57;3.33;;;;;;;0.88;82.44;95098.53;5095450;28;20192;-79
2021/03/15 03:23:19;;;;;;;5.83;3.07;;;;;;;0.89;82.71;95089.16;5095482;28;20176;-79
2021/03/15 03:25:45;;;;;;;8.47;3.70;;;;;;;0.94;82.63;95092.19;5095383;28;20710;-79
2021/03/15 03:28:11;;;;;;;10.50;3.70;;;;;;;0.91;82.60;95087.31;5095613;28;20183;-79
2021/03/15 03:30:38;;;;;;;10.10;3.60;;;;;;;0.94;82.63;95087.09;5095617;28;20196;-79
2021/03/15 03:33:06;;;;;;;11.40;3.93;;;;;;;0.91;82.65;95093.22;5113942;28;20188;-79
2021/03/15 03:35:32;;;;;;;7.57;3.23;;;;;;;0.89;83.14;95091.69;5095174;28;20183;-79
2021/03/15 03:37:57;;;;;;;10.97;3.23;;;;;;;0.84;83.36;95097.91;5095847;28;20258;-79
2021/03/15 03:40:23;;;;;;;8.30;3.27;;;;;;;0.83;83.61;95088.63;5095405;28;20176;-79
2021/03/15 03:42:49;;;;;;;10.37;3.50;;;;;;;0.80;83.89;95088.00;5095077;28;20326;-79
2021/03/15 03:45:15;;;;;;;9.50;3.37;;;;;;;0.79;84.19;95087.16;5094823;28;20203;-79
2021/03/15 03:47:42;;;;;;;12.73;4.30;;;;;;;0.77;84.13;95075.41;5077964;28;20184;-79
2021/03/15 03:50:12;;;;;;;10.63;3.33;;;;;;;0.78;84.39;95077.84;5095347;28;20183;-79
2021/03/15 03:52:43;;;;;;;11.17;3.53;;;;;;;0.76;84.75;95084.81;5094904;28;20282;-79
2021/03/15 03:55:09;;;;;;;9.23;3.33;;;;;;;0.71;84.73;95081.75;5094655;28;20659;-79
2021/03/15 03:57:36;;;;;;;10.33;3.43;;;;;;;0.73;84.86;95079.09;5095124;28;20649;-79
2021/03/15 04:00:07;;;;;;;10.60;3.07;;;;;;;0.72;84.83;95075.72;5094939;28;20701;-79
2021/03/15 04:02:58;;;;;;;5.60;2.57;;;;;;;0.66;85.16;95078.66;5095055;28;20286;-79
2021/03/15 04:05:28;;;;;;;7.07;3.20;;;;;;;0.66;85.33;95078.66;5112014;28;20251;-78
2021/03/15 04:08:06;;;;;;;6.10;2.60;;;;;;;0.67;84.53;95079.47;5094544;28;20206;-79
2021/03/15 04:10:33;;;;;;;3.63;2.60;;;;;;;0.69;84.34;95069.97;5094474;28;20178;-80
2021/03/15 04:13:03;;;;;;;6.67;2.80;;;;;;;0.66;84.89;95065.06;5094364;28;20188;-79
2021/03/15 04:15:29;;;;;;;6.33;3.10;;;;;;;0.67;84.86;95048.81;5094267;28;20172;-79
2021/03/15 04:17:55;;;;;;;6.83;3.20;;;;;;;0.67;85.08;95043.69;5095084;28;20184;-79
2021/03/15 04:20:27;;;;;;;5.90;3.07;;;;;;;0.62;84.98;95049.13;5094548;28;20184;-79
2021/03/15 04:22:55;;;;;;;12.50;3.37;;;;;;;0.63;85.20;95044.84;5094637;28;20180;-79
2021/03/15 04:25:22;;;;;;;8.33;3.23;;;;;;;0.57;85.59;95033.25;5094249;28;20214;-79
2021/03/15 04:27:50;;;;;;;6.90;3.33;;;;;;;0.57;85.40;95035.81;5094314;28;20180;-79
2021/03/15 04:30:17;;;;;;;5.10;3.10;;;;;;;0.51;85.84;95039.56;5094982;28;20519;-79
2021/03/15 04:32:43;;;;;;;8.03;3.23;;;;;;;0.51;86.06;95026.81;5094489;28;20643;-80
2021/03/15 04:35:09;;;;;;;6.53;3.80;;;;;;;0.54;85.93;95028.38;5094491;28;20194;-79
2021/03/15 04:37:35;;;;;;;5.87;3.30;;;;;;;0.48;85.83;95023.66;5094274;28;20637;-79
2021/03/15 04:40:00;;;;;;;6.80;3.70;;;;;;;0.44;86.21;95033.25;5089669;28;20554;-79
2021/03/15 04:42:26;;;;;;;9.63;3.37;;;;;;;0.39;86.12;95014.03;5073599;28;20267;-78
2021/03/15 04:44:52;;;;;;;6.47;4.00;;;;;;;0.39;86.57;95014.03;5090697;28;20181;-79
2021/03/15 04:47:17;;;;;;;6.03;3.67;;;;;;;0.42;86.09;95008.69;5094403;28;20533;-79
2021/03/15 04:49:43;;;;;;;7.97;3.90;;;;;;;0.37;86.03;95010.75;5105979;28;20249;-78
2021/03/15 04:52:10;;;;;;;8.40;3.73;;;;;;;0.41;86.27;95009.63;5096583;28;20204;-79
2021/03/15 04:54:35;;;;;;;5.73;3.50;;;;;;;0.35;86.33;95012.56;5115681;28;20170;-78
2021/03/15 04:57:01;;;;;;;8.33;3.50;;;;;;;0.33;86.13;95005.00;5119545;27;20201;-78
2021/03/15 04:59:27;;;;;;;6.00;3.93;;;;;;;0.29;86.38;94995.91;5122854;27;20557;-78
2021/03/15 05:01:53;;;;;;;7.53;4.00;;;;;;;0.31;86.63;94998.38;5121248;27;20198;-78
2021/03/15 05:04:19;;;;;;;5.40;3.43;;;;;;;0.28;86.45;94997.66;5104648;27;20175;-79
2021/03/15 05:06:45;;;;;;;5.20;3.67;;;;;;;0.24;86.67;95001.31;5113471;28;20219;-78
2021/03/15 05:09:13;;;;;;;9.67;3.47;;;;;;;0.25;86.75;95002.94;5112515;28;20250;-77
2021/03/15 05:11:40;;;;;;;4.77;3.60;;;;;;;0.22;86.55;94992.94;5101277;28;20262;-78
2021/03/15 05:14:06;;;;;;;5.47;3.47;;;;;;;0.23;86.48;94996.31;5096106;28;20224;-77
2021/03/15 05:16:35;;;;;;;4.63;3.93;;;;;;;0.20;86.68;94991.41;5095902;28;20175;-78
2021/03/15 05:19:03;;;;;;;6.10;4.27;;;;;;;0.23;86.45;94984.34;5097011;28;20218;-78
2021/03/15 05:21:29;;;;;;;4.10;3.37;;;;;;;0.14;86.25;94982.41;5097332;28;20569;-78
2021/03/15 05:23:55;;;;;;;5.53;3.63;;;;;;;0.09;86.30;94970.81;5097400;28;20249;-78
2021/03/15 05:26:22;;;;;;;6.93;3.90;;;;;;;0.02;86.41;94972.97;5097178;28;20298;-78
2021/03/15 05:28:47;;;;;;;5.53;3.70;;;;;;;0.01;86.66;94968.78;5098034;28;20179;-77
2021/03/15 05:31:13;;;;;;;7.03;4.07;;;;;;;-0.04;86.75;94970.81;5097160;28;20663;-78
2021/03/15 05:33:39;;;;;;;4.93;3.40;;;;;;;-0.07;86.97;94963.34;5097292;28;20240;-78
2021/03/15 05:36:11;;;;;;;6.43;3.80;;;;;;;-0.09;86.74;94962.59;5096785;28;20685;-78
2021/03/15 05:38:38;;;;;;;4.53;3.83;;;;;;;-0.10;86.74;94953.31;5080515;28;20545;-79
2021/03/15 05:41:07;;;;;;;7.40;4.50;;;;;;;-0.07;86.55;94958.25;5097010;28;20195;-78
2021/03/15 05:43:48;;;;;;;5.43;4.73;;;;;;;-0.14;86.40;94957.00;5096914;28;20196;-78
2021/03/15 05:46:33;;;;;;;5.80;4.43;;;;;;;-0.16;86.91;94948.63;5113879;28;20200;-78
2021/03/15 05:49:28;;;;;;;8.93;5.10;;;;;;;-0.17;86.92;94940.16;5115259;28;20187;-78
2021/03/15 05:52:06;;;;;;;6.80;4.77;;;;;;;-0.17;86.65;94941.88;5115092;28;20203;-78
2021/03/15 05:54:44;;;;;;;4.53;4.10;;;;;;;-0.17;86.83;94940.16;5096644;28;20226;-79
2021/03/15 05:57:57;;;;;;;5.33;3.83;;;;;;;-0.17;87.01;94931.69;5115142;28;20172;-79
2021/03/15 06:00:26;;;;;;;6.10;3.43;;;;;;;-0.14;86.82;94928.94;5107665;28;20198;-78
2021/03/15 06:02:52;;;;;;;4.67;3.13;;;;;;;-0.14;87.08;94931.47;5096721;28;20258;-78
2021/03/15 06:05:28;;;;;;;4.63;3.00;;;;;;;-0.12;86.71;94919.44;5114443;28;20641;-79
2021/03/15 06:08:12;;;;;;;3.07;2.47;;;;;;;-0.11;87.03;94926.97;5097265;28;20653;-78
2021/03/15 06:10:48;;;;;;;2.13;1.73;;;;;;;0.00;86.96;94911.00;5096654;28;20278;-78
2021/03/15 06:13:14;;;;;;;2.60;1.53;;;;;;;0.01;87.04;94916.91;5096208;28;20191;-79
2021/03/15 06:15:42;;;;;;;1.90;1.37;;;;;;;0.03;87.13;94910.78;5114149;28;20171;-79
2021/03/15 06:18:09;;;;;;;1.43;1.23;;;;;;;0.09;86.94;94907.00;5096410;28;20178;-78
2021/03/15 06:20:37;;;;;;;2.03;1.20;;;;;;;0.14;86.87;94910.09;5096095;28;20204;-78
2021/03/15 06:23:04;;;;;;;2.30;1.90;;;;;;;0.17;86.79;94904.75;5096274;28;20175;-79
2021/03/15 06:25:30;;;;;;;1.83;1.60;;;;;;;0.19;86.42;94903.78;5095948;28;20207;-78
2021/03/15 06:27:55;;;;;;;1.10;0.90;;;;;;;0.29;86.62;94901.44;5096147;28;20211;-78
2021/03/15 06:30:22;;;;;;;5.20;4.03;;;;;;;0.39;86.07;94899.06;5096328;28;20262;-77
2021/03/15 06:32:50;;;;;;;1.17;1.07;;;;;;;0.43;85.55;94901.31;5096150;28;20555;-78
2021/03/15 06:35:16;;;;;;;1.27;1.00;;;;;;;0.51;85.59;94899.06;5095832;28;20183;-78
2021/03/15 06:37:42;;;;;;;2.40;0.90;;;;;;;0.60;85.25;94895.06;5096043;28;20187;-79
2021/03/15 06:40:08;;;;;;;1.40;0.90;;;;;;;0.63;85.05;94884.66;5095927;28;20585;-78
2021/03/15 06:42:34;;;;;;;1.53;0.97;;;;;;;0.62;84.62;94882.19;5095767;28;20691;-78
2021/03/15 06:44:59;;;;;;;0.73;0.50;;;;;;;0.67;84.55;94890.38;5113764;28;20183;-78
2021/03/15 06:47:25;;;;;;;1.37;0.53;;;;;;;0.74;84.35;94889.88;5095768;28;20179;-78
2021/03/15 06:49:50;;;;;;;0.30;0.30;;;;;;;0.85;83.97;94874.59;5095738;28;20226;-78
2021/03/15 06:52:16;;;;;;;1.03;0.77;;;;;;;0.89;84.07;94879.53;5095687;28;20284;-79
2021/03/15 06:54:41;;;;;;;0.60;0.60;;;;;;;0.89;83.77;94884.63;5111870;28;20179;-78
2021/03/15 06:57:20;;;;;;;1.37;0.40;;;;;;;0.87;84.09;94881.34;5093445;28;20259;-78
2021/03/15 06:59:56;;;;;;;0.40;0.40;;;;;;;0.85;83.85;94884.00;5078407;28;20183;-78
2021/03/15 07:02:24;;;;;;;0.93;0.43;;;;;;;0.72;83.97;94880.69;5113943;27;20192;-78
2021/03/15 07:04:50;;;;;;;1.30;1.20;;;;;;;0.66;84.43;94869.13;5098925;28;20213;-78
2021/03/15 07:07:25;;;;;;;0.53;0.53;;;;;;;0.62;84.64;94880.47;5102630;28;20204;-78
2021/03/15 07:09:51;;;;;;;0.50;0.40;;;;;;;0.65;85.00;94872.59;5092661;28;20183;-77
2021/03/15 07:12:20;;;;;;;0.60;0.60;;;;;;;0.63;84.80;94877.00;5112856;27;20207;-78
2021/03/15 07:14:47;;;;;;;1.67;0.40;;;;;;;0.66;84.88;94874.22;5101786;28;20180;-78
2021/03/15 07:17:26;;;;;;;0.40;0.40;;;;;;;0.70;84.73;94878.19;5098134;28;20647;-78
2021/03/15 07:19:53;;;;;;;2.03;0.90;;;;;;;0.74;84.59;94877.09;5099456;28;20188;-78
2021/03/15 07:22:20;;;;;;;1.73;0.87;;;;;;;0.83;83.94;94875.63;5091653;28;20202;-78
2021/03/15 07:24:46;;;;;;;1.20;0.70;;;;;;;0.83;84.48;94879.00;5096329;28;20187;-78
2021/03/15 07:27:27;;;;;;;0.63;0.50;;;;;;;0.98;84.13;94878.88;5099974;28;20210;-78
2021/03/15 07:29:52;;;;;;;0.93;0.70;;;;;;;1.00;84.02;94884.72;5095126;28;20631;-78
2021/03/15 07:32:39;;;;;;;1.00;0.80;;;;;;;1.00;84.42;94887.25;5094700;28;20210;-78
2021/03/15 07:35:20;;;;;;;0.50;0.50;;;;;;;1.13;83.24;94883.72;5077539;28;20244;-78
2021/03/15 07:37:45;;;;;;;0.50;0.50;;;;;;;1.24;83.74;94880.44;5115985;27;20179;-78
2021/03/15 07:40:11;;;;;;;0.70;0.40;;;;;;;1.38;83.11;94882.84;5113801;27;20244;-78
2021/03/15 07:42:37;;;;;;;0.57;0.30;;;;;;;1.46;82.57;94889.97;5097893;27;20686;-78
2021/03/15 07:45:02;;;;;;;0.80;0.47;;;;;;;1.58;82.60;94873.75;5097642;27;20175;-78
2021/03/15 07:47:28;;;;;;;0.50;0.50;;;;;;;1.89;81.81;94882.59;5114794;27;20211;-78
2021/03/15 07:49:57;;;;;;;0.40;0.40;;;;;;;2.04;81.60;94880.69;5114928;27;20179;-78
2021/03/15 07:52:39;;;;;;;0.40;0.40;;;;;;;1.84;81.12;94874.44;5097801;27;20202;-78
2021/03/15 07:55:05;;;;;;;0.77;0.60;;;;;;;1.87;81.57;94881.09;5114651;27;20257;-78
2021/03/15 07:57:32;;;;;;;0.40;0.40;;;;;;;2.01;81.11;94869.81;5114780;27;20175;-78
2021/03/15 07:59:58;;;;;;;0.53;0.50;;;;;;;1.92;81.58;94879.00;5081259;28;20262;-78
2021/03/15 08:02:25;;;;;;;0.43;0.43;;;;;;;2.18;81.54;94889.91;5080594;27;20202;-78
2021/03/15 08:04:52;;;;;;;0.40;0.40;;;;;;;2.10;81.07;94899.88;5094042;28;20183;-78
2021/03/15 08:07:18;;;;;;;0.60;0.60;;;;;;;1.85;81.72;94885.47;5093914;28;20750;-78
2021/03/15 08:09:48;;;;;;;0.63;0.50;;;;;;;1.75;81.70;94907.56;5094325;28;20172;-79
2021/03/15 08:12:15;;;;;;;0.30;0.30;;;;;;;1.69;82.30;94917.31;5072195;28;20685;-78
2021/03/15 08:14:43;;;;;;;0.67;0.30;;;;;;;1.66;82.27;94911.59;5094047;28;20256;-78
2021/03/15 08:17:11;;;;;;;0.40;0.40;;;;;;;1.76;82.01;94924.53;5094227;28;20229;-78
2021/03/15 08:19:37;;;;;;;0.30;0.30;;;;;;;1.61;81.83;94923.91;5077182;28;20567;-78
2021/03/15 08:22:04;;;;;;;0.40;0.40;;;;;;;1.74;81.92;94923.84;5093868;28;20202;-78
2021/03/15 08:24:33;;;;;;;0.33;0.30;;;;;;;1.76;81.61;94933.03;5093806;28;20207;-78
2021/03/15 08:27:01;;;;;;;0.30;0.30;;;;;;;1.85;81.87;94941.81;5093855;28;20215;-78
2021/03/15 08:29:26;;;;;;;0.83;0.60;;;;;;;1.83;82.11;94939.34;5094753;28;20210;-78
2021/03/15 08:31:53;;;;;;;0.60;0.60;;;;;;;1.88;81.94;94949.28;5097224;28;20195;-76
2021/03/15 08:34:19;;;;;;;1.73;0.50;;;;;;;1.83;82.70;94944.47;5093636;28;20178;-76
2021/03/15 08:36:46;;;;;;;65.67;8.53;;;;;;;1.82;82.54;94950.53;5093711;28;20172;-76
2021/03/15 08:39:27;;;;;;;0.77;0.60;;;;;;;1.87;82.72;94956.16;5093759;28;20230;-75
2021/03/15 08:42:19;;;;;;;1.53;0.63;;;;;;;1.89;83.17;94948.34;5108242;28;21042;-76
2021/03/15 08:44:46;;;;;;;4.67;1.00;;;;;;;1.86;82.94;94957.09;5107192;28;20180;-77
2021/03/15 08:47:13;;;;;;;1.73;0.90;;;;;;;1.79;83.55;94948.19;5084655;28;20238;-75
2021/03/15 08:49:42;;;;;;;1.70;1.27;;;;;;;1.80;83.85;94951.56;5107979;28;20179;-75
2021/03/15 08:52:13;;;;;;;1.70;1.50;;;;;;;1.84;83.51;94951.22;5114209;28;20191;-75
2021/03/15 08:54:43;;;;;;;1.57;1.47;;;;;;;1.94;83.70;94956.50;5132172;28;20206;-75
2021/03/15 08:57:28;;;;;;;1.53;1.40;;;;;;;1.97;84.03;94959.69;5099937;28;20231;-75
2021/03/15 08:59:54;;;;;;;1.90;1.67;;;;;;;2.01;84.08;94955.16;5099628;28;20179;-75
2021/03/15 09:02:33;;;;;;;2.43;2.10;;;;;;;2.07;83.58;94964.97;5072949;28;20848;-75
2021/03/15 09:05:22;;;;;;;1.70;1.60;;;;;;;2.01;83.36;94964.56;5073187;28;20176;-75
2021/03/15 09:07:48;;;;;;;3.13;2.33;;;;;;;2.05;83.40;94978.81;5085647;28;20192;-75
2021/03/15 09:10:22;;;;;;;3.70;2.60;;;;;;;2.01;83.61;94972.25;5076632;28;20181;-75
2021/03/15 09:13:12;;;;;;;4.40;3.00;;;;;;;1.99;84.12;94968.06;5118776;28;20202;-75
2021/03/15 09:15:39;;;;;;;3.80;2.67;;;;;;;2.08;84.06;94983.72;5090888;28;20176;-75
2021/03/15 09:18:43;;;;;;;3.00;1.97;;;;;;;2.09;83.23;94977.66;5073175;28;20242;-75
2021/03/15 09:21:25;;;;;;;2.30;2.10;;;;;;;2.14;83.60;94980.72;5091149;28;20195;-75
2021/03/15 09:23:51;;;;;;;2.53;2.10;;;;;;;2.08;83.40;94984.53;5073024;28;20242;-75
2021/03/15 09:26:25;;;;;;;3.93;2.30;;;;;;;2.08;84.01;94984.53;5079948;28;20610;-75
2021/03/15 09:28:52;;;;;;;2.20;2.00;;;;;;;2.03;84.05;94986.59;5120015;28;20576;-75
2021/03/15 09:31:17;;;;;;;4.07;2.47;;;;;;;1.97;84.33;94987.84;5093140;28;20200;-75
2021/03/15 09:33:42;;;;;;;5.07;2.93;;;;;;;2.15;83.95;94995.16;5093292;28;20197;-75
2021/03/15 09:36:08;;;;;;;3.50;2.40;;;;;;;2.04;84.42;94988.25;5115366;28;20179;-75
2021/03/15 09:38:33;;;;;;;4.47;2.93;;;;;;;2.04;84.22;94993.38;5101393;28;20627;-75
2021/03/15 09:40:59;;;;;;;6.27;3.30;;;;;;;2.04;84.86;94997.69;5101016;28;20640;-75
2021/03/15 09:43:25;;;;;;;4.80;3.20;;;;;;;1.99;84.55;94995.44;5098519;27;20175;-75
2021/03/15 09:45:57;;;;;;;3.00;2.43;;;;;;;1.99;84.89;95003.09;5099457;28;20223;-75
2021/03/15 09:48:23;;;;;;;2.70;2.50;;;;;;;2.05;84.83;94989.06;5107106;28;20172;-75
2021/03/15 09:51:00;;;;;;;2.73;2.53;;;;;;;2.02;84.51;94996.94;5096784;28;20195;-75
2021/03/15 09:53:26;;;;;;;3.33;2.90;;;;;;;1.99;84.28;94993.69;5079883;28;20194;-75
2021/03/15 09:56:09;;;;;;;2.90;2.53;;;;;;;2.02;84.84;94997.75;5096475;28;20687;-76
2021/03/15 09:58:34;;;;;;;4.00;2.63;;;;;;;1.97;84.73;95002.41;5114850;28;20171;-75
2021/03/15 10:00:59;;;;;;;3.30;2.80;;;;;;;2.02;85.31;95002.88;5079599;28;20224;-75
2021/03/15 10:03:26;;;;;;;2.70;2.50;;;;;;;2.05;84.71;94996.75;5096587;28;20666;-75
2021/03/15 10:05:53;;;;;;;3.27;2.97;;;;;;;2.09;84.86;95000.72;5096224;28;20559;-75
2021/03/15 10:08:18;;;;;;;5.27;4.50;;;;;;;2.15;85.34;95005.41;5079740;28;20171;-75
2021/03/15 10:10:44;;;;;;;5.23;3.03;;;;;;;2.17;84.88;94995.84;5079504;28;20700;-76
2021/03/15 10:13:09;;;;;;;3.87;2.97;;;;;;;2.18;85.05;95000.88;5096211;28;20183;-75
2021/03/15 10:15:35;;;;;;;3.97;3.03;;;;;;;2.23;84.80;95000.53;5094319;28;20258;-75
2021/03/15 10:18:00;;;;;;;20.53;5.10;;;;;;;2.13;85.34;95004.69;5094423;28;20670;-75
2021/03/15 10:20:33;;;;;;;7.13;5.10;;;;;;;2.23;85.18;95008.22;5099797;27;20179;-75
2021/03/15 10:23:09;;;;;;;3.77;3.33;;;;;;;2.31;84.92;95010.25;5095415;28;20678;-76
2021/03/15 10:25:34;;;;;;;4.10;3.37;;;;;;;2.40;84.61;95004.47;5095588;28;20195;-76
2021/03/15 10:27:59;;;;;;;3.60;2.60;;;;;;;2.37;84.50;95010.59;5096148;28;20206;-75
2021/03/15 10:30:27;;;;;;;8.07;3.20;;;;;;;2.38;84.99;95013.97;5095969;28;20637;-75
2021/03/15 10:32:52;;;;;;;3.20;2.80;;;;;;;2.46;84.94;95016.81;5091953;28;20546;-75
2021/03/15 10:35:18;;;;;;;7.67;4.43;;;;;;;2.47;84.66;95013.31;5094830;28;20180;-75
2021/03/15 10:37:43;;;;;;;9.53;5.20;;;;;;;2.57;84.85;95024.56;5091570;28;20178;-75
2021/03/15 10:40:11;;;;;;;4.60;3.80;;;;;;;2.78;84.74;95028.09;5075755;28;20176;-76
2021/03/15 10:42:38;;;;;;;5.27;4.77;;;;;;;2.73;84.33;95029.34;5058821;28;20196;-75
2021/03/15 10:45:08;;;;;;;4.03;3.37;;;;;;;2.66;84.45;95035.88;5075473;28;20605;-75
2021/03/15 10:47:35;;;;;;;5.07;3.70;;;;;;;2.63;84.47;95023.28;5064250;28;20180;-75
2021/03/15 10:50:00;;;;;;;3.17;2.87;;;;;;;2.59;84.44;95029.56;5095704;28;20187;-75
2021/03/15 10:52:30;;;;;;;3.33;3.03;;;;;;;2.58;84.19;95031.31;5095532;28;20200;-75
2021/03/15 10:55:08;;;;;;;3.70;2.77;;;;;;;2.50;84.47;95054.13;5094455;28;20165;-75
2021/03/15 10:57:34;;;;;;;3.47;2.70;;;;;;;2.43;84.77;95060.59;5095543;28;20539;-75
2021/03/15 10:59:59;;;;;;;3.10;2.80;;;;;;;2.51;84.56;95055.75;5096262;28;20172;-76
2021/03/15 11:02:25;;;;;;;5.03;2.93;;;;;;;2.41;85.12;95058.16;5095361;28;20200;-75
2021/03/15 11:04:58;;;;;;;4.57;3.03;;;;;;;2.48;85.39;95072.16;5095062;28;20221;-75
2021/03/15 11:07:31;;;;;;;4.23;3.23;;;;;;;2.44;84.75;95068.19;5113505;28;20279;-75
2021/03/15 11:10:08;;;;;;;3.47;3.00;;;;;;;2.60;84.12;95067.91;5095168;28;20242;-75
2021/03/15 11:12:42;;;;;;;3.43;3.03;;;;;;;2.56;82.95;95063.91;5094869;28;20226;-75
2021/03/15 11:15:16;;;;;;;4.33;2.97;;;;;;;2.64;83.73;95065.91;5113312;28;20706;-75
2021/03/15 11:17:55;;;;;;;5.93;3.90;;;;;;;2.77;84.33;95069.25;5075449;28;20186;-75
2021/03/15 11:20:35;;;;;;;5.07;3.10;;;;;;;3.00;83.70;95060.66;5092704;28;20172;-75
2021/03/15 11:23:00;;;;;;;2.97;2.60;;;;;;;2.98;83.19;95065.09;5112986;28;20184;-79
2021/03/15 11:25:29;;;;;;;3.20;2.60;;;;;;;3.12;83.39;95067.47;5102549;28;20254;-76
2021/03/15 11:27:55;;;;;;;2.77;2.50;;;;;;;3.14;82.63;95062.22;5112218;28;20180;-76
2021/03/15 11:30:25;;;;;;;2.63;2.40;;;;;;;3.16;83.11;95072.34;5094604;28;20535;-75
2021/03/15 11:32:59;;;;;;;2.90;2.50;;;;;;;3.07;82.53;95071.28;5094535;28;20651;-75
2021/03/15 11:35:24;;;;;;;2.83;2.50;;;;;;;3.11;82.32;95070.97;5075842;28;20594;-76
2021/03/15 11:37:50;;;;;;;1.93;1.83;;;;;;;3.07;82.10;95076.41;5112543;28;20167;-76
2021/03/15 11:40:35;;;;;;;2.37;2.00;;;;;;;3.09;82.36;95075.41;5094168;28;20179;-75
2021/03/15 11:43:01;;;;;;;1.93;1.73;;;;;;;3.02;82.56;95071.63;5092082;28;20263;-75
2021/03/15 11:45:28;;;;;;;2.47;2.27;;;;;;;2.97;82.98;95065.22;5091177;28;20168;-75
2021/03/15 11:47:54;;;;;;;2.83;2.23;;;;;;;2.93;83.33;95069.75;5095528;28;20778;-75